首页
METAR-TAF:

METAR-TAF

机场 :

Duplin County Airport

Kenansville, 北卡罗来纳州, 美国

纬度: 35-00-00N, 经度: 077-58-54W, 海拔: 42米

当前天气观测

该预报发布于2小时和21分钟前的23:50 UTC
静风
温度 25°C
湿度 94%
气压 1016 hPa
能見度: 5.6公里
散云层高于4600英尺
多云层高于6000英尺
多云层高于9000英尺
小雨, 轻雾

METAR: KDPL 202350Z AUTO 00000KT 3 1/2SM -RA BR SCT046 BKN060 BKN090 25/24 A3000 RMK AO2 P0006

时间: 22:11 (02:11 UTC)


TAF: 丢失

超过4000个机场的气象观测和天气预报(METAR&TAF报告)。

可查询的气象台以黄色和红色小点在地图上表示。

将鼠标移到小点上方,可查看气象台名称。

然后点击查看天气观测和预报。

如需切换地图:点击带黑十字的绿色按钮放大地图;点击带横线的绿色按钮缩小地图;或者点击绿色箭头查看邻近地区的地图。


METAR-TAF: